Pagrindinis puslapis
METAR-TAF:

METAR-TAF

Oro uostai :

Joensū, Suomija

platuma: 62-40N, ilguma: 029-38E, Aukštis: 119 m

Dabartinis oras

Ataskaita buvo paskelbta 37 minutes, ne 11:50 UTC
Vėjas 9 kt iš Šiaurės, svyruoja nuo Šiaurės/Šiaurės Vakarų ir Šiaurės Rytų
Temperatūra 0°C
Drėgmė 59%
Slėgis 1024 hPa
Matomumas 10 km arba daugiau
Su prošvaistėmis ne aukštis 3400 ft

METAR: EFJO 021150Z AUTO 01009KT 330V050 9999 BKN034 00/M07 Q1024

Laikas: 15:27 (12:27 UTC)

Prognozė

Ataskaita buvo paskelbta 25 valandos ir 3 minutes, ne 11:24 UTC
Prognozė galioja nuo 01 metu 12 UTC su 01 metu 15 UTC
Vėjas 7 kt iš Šiaurės
Matomumas 10 km arba daugiau
Su prošvaistėmis ne aukštis 4500 ft

TAF: EFJO 011124Z 0112/0115 36007KT 9999 BKN045

Orai ataskaitas ir orų prognozės (METAR, TAF).

turimą stotys yra geltonos ir raudonos taškus žemėlapyje.

Perkelti pele per norėdami pamatyti stoties vardą.

Tada spustelėkite, norėdami matyti oro stebėjimo ir prognozės.

Norėdami pakeisti žemėlapį: spustelėkite ant žalios mygtukų su juodo kryžiaus žemyn,; žalią mygtuką su brūkšneliu, jei norite nutolinti; arba žalių rodyklių gretimoms žemėlapius.


METAR-TAF: